Valpo, Indiana
Current Conditions -  °F | °C
As of 10:56 AM on Thursday 30 Oct 2014 (Local Time) from KVPZ Reporting Station
Clear Clear  
Wind Chill: 43°   Ceiling: Unl
Heat Index: 47°   Visibility: 10mi
Dew Point: 33°   Wind: 9mph
Humidity: 59%   Direction: 210°SSW
Pressure: 30.15"   Gusts: NA
Location:  41.4608°N, 87.0555°W
Report Text: KVPZ 301556Z AUTO 21008KT 10SM CLR 08/01 A3015 RMK AO2 SLP212 T00830006 TSNO
Loading
Personal Weather Stations






























Interactive Weather Map
Tropical Storm Tracking
New forecast layout! Learn more

10-Day Weather Forecast

Advertisements
Track Severe Weather on mobile